x

9410230 - La Jolla, Ca (ljac1) Weather Station

11:30 - Fri 28th Apr 2017 All times are PDT. -7 hours from GMT.

  • Wind
  • Sea Temp 63°f
  • Air Temp 64°f
  • Sea Pressure 1009.2mb
  • 9410230 - La Jolla, Ca
  • 9410230 - La Jolla, Ca

More Historic Weather Station data

Upgrade to MSW Pro to gain access to the past 30 days of data for over 8000 Wavebouys and Weather Stations around the globe.

Join Pro

Comparision Forecast

View Surf forecast
   
ven. 04/28 11:30  -  1 mph 1009.2mb 63f 64f
11:24 1 2 mph 1009.1mb 63f 64f
11:18 1 3 mph 1009.2mb 63f 64f
11:12 3
mph
1009.2mb 63f 64f
11:06 1 2 mph 1009.3mb 64f 65f
11:00 2 3 mph 1009.2mb 63f 65f
10:54 3
mph
1009.1mb 63f 65f
10:48  -  1 mph 1009.1mb 63f 64f
10:42 1 2 mph 1009.1mb 63f -
10:36  -  1 mph 1009.1mb 63f -
10:30  -  2 mph 1009.1mb 63f 65f
10:24 2 3 mph 1009.2mb 63f 65f
10:18  -  2 mph 1009.2mb 63f 66f
10:12 1 5 mph 1009.1mb 63f 66f
10:06 3 5 mph 1009mb 64f 66f
10:00 3 5 mph 1009mb 63f 66f
9:54 2
mph
1008.9mb 63f 66f
9:48 3
mph
1009mb 63f 66f
9:42 1 2 mph 1008.8mb 63f 65f
9:36  -  2 mph 1008.7mb 64f 65f
9:30 1 2 mph 1008.6mb 64f 65f
9:24 1 2 mph 1008.5mb 64f 65f
9:18 1 2 mph 1008.4mb 64f 65f
9:12 1
mph
1008.5mb 64f 65f
9:06  -  2 mph 1008.4mb 64f 66f
9:00 1
mph
1008.4mb 64f 66f
8:54  -  3 mph 1008.3mb 64f 65f
8:48 2 6 mph - - -
8:42 5
mph
1008.3mb 64f 66f
8:36 6 7 mph 1008.3mb 64f 66f
8:30 7
mph
1008.2mb 64f 66f
8:24 7 8 mph 1008.1mb 64f 66f
8:18 6 8 mph 1008mb 64f 67f
8:12 6
mph
1007.9mb 64f 66f
8:06 2 6 mph 1008mb 64f 66f
8:00 3 6 mph 1007.9mb 64f 67f
7:54 5 7 mph 1007.8mb 64f 67f
7:48 6
mph
1007.7mb 64f 67f
7:42 5
mph
1007.6mb 64f 67f
7:36 3
mph
1007.6mb 65f 67f
7:30 3
mph
1007.4mb 64f 67f
7:24 1 2 mph 1007.6mb 65f 67f
7:18 2 3 mph - - -
7:12 2 3 mph 1007.4mb 64f 67f
7:06 2
mph
1007.5mb 64f 67f
7:00  -  1 mph 1007.5mb 65f 67f
6:54 2
mph
1007.4mb 65f 68f
6:48 1 2 mph 1007.3mb 65f 68f
6:42  -  mph 1007.4mb 65f 69f
6:36  -  1 mph 1007.4mb 65f 69f
6:30  -  2 mph 1007.3mb 65f 69f
6:24  -  2 mph 1007.1mb 64f 69f
6:18 1 2 mph - - -
6:12  -  1 mph 1007.2mb 65f 70f
6:06  -  1 mph 1007.1mb 65f 71f
6:00  -  1 mph 1007.1mb 65f 70f
5:48  -  1 mph - - -
5:42  -  2 mph 1007mb 65f 69f
5:36 2
mph
1007mb 65f 68f
5:30 1 2 mph 1007mb 65f 69f
5:24 1 2 mph 1007mb 65f 70f
5:18  -  1 mph - - -
5:12 1 2 mph 1007.1mb 65f 69f
5:06 1 3 mph 1007mb 65f 69f
5:00 2 3 mph 1006.9mb 65f 68f
4:54 3 6 mph 1006.8mb 65f 69f
4:48 6 7 mph 1006.8mb - -
4:42 6
mph
1006.8mb 65f 68f
4:36 5 6 mph 1006.8mb 65f 68f
4:30 3 6 mph 1007mb 65f 68f
4:24 6
mph
1007mb 65f 67f
4:12 5 6 mph 1007mb 65f 67f
4:06 6 7 mph 1007mb 65f 68f
4:00 5 6 mph 1007.1mb 65f -
3:54 5 6 mph 1007.1mb 65f 69f
3:48 6 7 mph 1007.2mb - -
3:42 6 7 mph 1007.3mb 65f 69f
3:36 2
mph
1007.2mb 65f 70f
3:30 2 3 mph 1007.1mb 65f 69f
3:24 1 6 mph 1007.2mb 65f 69f
3:18 5 6 mph - - -
3:12 5 6 mph 1007.5mb 64f 68f
3:06 7 10 mph 1007.6mb 64f 68f
3:00 9 10 mph 1007.6mb 64f -
2:54 7 10 mph 1007.8mb 64f 68f
2:48 8 10 mph - - -
2:42 8 11 mph 1007.8mb 64f 68f
2:36 7 8 mph 1007.8mb 64f 69f
2:30 2 5 mph 1007.9mb 64f 70f
2:24 2 3 mph 1007.8mb 64f 70f
2:18 2 3 mph 1007.9mb 64f 71f
2:12 1 2 mph 1008mb 64f 71f
2:06  -  2 mph 1008mb 63f 70f
2:00 2 3 mph 1008mb 63f 69f
1:54 3
mph
1008mb 63f 68f
1:48 2 3 mph - - -
1:42 1 2 mph 1008.1mb 63f 68f
1:36 1 2 mph 1008.1mb 63f 67f
1:30 2
mph
1008.2mb 63f 67f
1:24 2
mph
1008.3mb 63f 67f
1:18  -  3 mph 1008.3mb 62f 67f
1:12 2 5 mph 1008.4mb 62f 66f
1:06 5 6 mph 1008.5mb 62f 66f
1:00 6
mph
1008.5mb 62f 65f
12:54 5 6 mph 1008.5mb 63f 65f
12:48 5 6 mph 1008.5mb 63f 65f
12:42 6 7 mph 1008.6mb 63f 65f
12:36 6 8 mph 1008.7mb 63f 65f
12:30 7 8 mph 1008.7mb 63f 65f
12:24 7 8 mph 1008.7mb 63f 65f
12:18 7 9 mph 1008.8mb 63f 65f
12:12 8 9 mph 1008.9mb 63f 65f
12:06 8 9 mph 1008.8mb 63f 65f
12:00 8 9 mph 1008.8mb 63f 65f
11:54 8 10 mph 1008.9mb 62f 65f
11:48 10
mph
1008.9mb 62f 65f
11:42 10 11 mph 1008.9mb 62f 65f
11:36 10 11 mph 1008.9mb 62f 65f
11:30 10 11 mph 1008.9mb 62f 65f
11:24 9
mph
1008.9mb 63f 65f
11:18 9 11 mph 1009mb 63f 65f
11:12 10 11 mph 1008.9mb 63f 65f
11:06 10 13 mph 1008.9mb 63f 65f
11:00 13 14 mph 1009mb 62f 65f
10:54 14
mph
1008.9mb 63f 65f
10:48 13 14 mph - - -
10:42 11 13 mph 1008.9mb 62f 65f
10:36 11 13 mph 1008.9mb 62f 65f
10:30 9 11 mph 1008.9mb 62f 66f
10:24 10
mph
1008.8mb 62f 65f
10:18 9 13 mph 1008.8mb 62f 65f
10:12 10 13 mph 1008.8mb 62f 65f
10:06 10 13 mph 1008.8mb 62f 66f
10:00 10 11 mph 1008.7mb 60f 66f
9:54 9 13 mph 1008.8mb 60f 66f
9:48 9 10 mph 1008.9mb 59f 65f
9:42 8 9 mph 1008.9mb 58f 66f
9:36 8 9 mph 1008.9mb 57f 66f
9:30 5 6 mph 1009mb 58f 67f
9:24 2 5 mph 1008.9mb 59f 68f
9:18 2 3 mph 1008.8mb 59f 68f
9:12 3 6 mph 1008.8mb 59f 67f
9:06 5 7 mph 1008.7mb 60f 67f
9:00 6 8 mph 1008.7mb 59f 66f
8:54 6 7 mph 1008.7mb 59f 67f
8:48 5 7 mph 1008.8mb 57f 67f
8:42 6 7 mph 1008.7mb 58f 66f
8:36 7 8 mph 1008.7mb 58f 66f
8:30 6 8 mph 1008.8mb 58f 66f
8:24 7 9 mph 1008.7mb 58f 66f
8:18 5 10 mph 1008.6mb 58f 66f
8:12 6 9 mph 1008.7mb 58f 65f
8:06 5 8 mph 1008.7mb 58f 65f
8:00 8 10 mph 1008.6mb 58f 65f
7:54 8 13 mph 1008.6mb 58f 65f
7:48 9 11 mph 1008.5mb 58f 64f
7:42 7 10 mph 1008.5mb 58f 64f
7:36 5 8 mph 1008.5mb 58f 64f
7:30 6 8 mph 1008.6mb 58f 64f
7:24 6 8 mph 1008.6mb 58f 64f
7:18 6 8 mph 1008.4mb 58f 64f
7:12 5 8 mph 1008.5mb 58f 63f
7:06 7 8 mph 1008.3mb 58f 63f
7:00 5 8 mph 1008.3mb 59f 63f
6:54 5 8 mph 1008.1mb 59f 63f
6:48 6 9 mph 1008mb 59f 63f
6:42 5 7 mph 1008.1mb 58f 63f
6:36 3 6 mph 1008mb 59f 63f
6:30 5 6 mph 1007.9mb 58f 63f
6:24 6 7 mph 1007.8mb 58f 63f
6:18 5 8 mph 1007.7mb 58f 63f
6:12 6 8 mph 1007.7mb 59f 63f
6:06 5 8 mph 1007.7mb 59f 63f
6:00 7 10 mph 1007.4mb 59f 63f
5:54 7 10 mph 1007.3mb 59f 63f
5:48 8 11 mph 1007.2mb 60f 63f
5:42 7 10 mph 1007mb 60f 63f
5:36 6 9 mph 1007.1mb 61f 63f
5:30 5 8 mph 1007.1mb 61f 63f
5:24 5 8 mph 1007.1mb 62f 63f
5:18 7 8 mph 1007mb 62f 63f
5:12 7 9 mph 1007mb 62f 63f
5:06 6 8 mph 1007.1mb 62f 63f
5:00 7 10 mph 1007.1mb 62f 63f
4:30 9 13 mph 1007mb 62f 63f
4:24 7 11 mph 1007mb 62f 63f
4:18 10 13 mph 1007mb 62f 62f
4:12 6 8 mph 1007.1mb 62f 62f
4:06 7 13 mph 1007.1mb 62f 63f
4:00 8 11 mph 1007mb 62f 62f
3:54 6 9 mph 1006.9mb 62f 62f
3:48 8 9 mph 1006.9mb 62f 62f
3:42 6 8 mph 1006.8mb 63f 62f
3:36 5 9 mph 1006.8mb 63f 62f
3:30 5 9 mph 1006.7mb 63f 62f
3:24 3 6 mph 1006.9mb 63f 62f
3:18 2 5 mph 1006.8mb 62f 63f
3:12 2 3 mph 1006.9mb 62f 63f
3:06 1 2 mph 1006.8mb 62f 63f
3:00 3 5 mph 1006.8mb 62f 63f
2:54  -  2 mph 1006.8mb 63f 63f
2:48  -  2 mph 1006.8mb 62f 63f
2:42 2 6 mph 1006.9mb 63f 63f
2:36 6 9 mph 1006.8mb 63f 63f
2:30 7 9 mph 1006.7mb 63f 63f
2:24 6 11 mph 1006.7mb 62f 63f
2:18 8 11 mph 1006.8mb 63f 63f
2:12 5 8 mph 1006.9mb 63f 63f
2:06 6 9 mph 1006.8mb 62f 63f
2:00 7 9 mph 1006.8mb 63f 63f
1:54 7 13 mph 1006.9mb 62f 63f
1:48 10 13 mph 1006.9mb 62f 63f
1:42 8 11 mph 1007mb 62f 63f
1:36 7 14 mph 1007.2mb 62f 63f
1:30 7 10 mph 1007.2mb 62f 63f
1:24 7 10 mph 1007.3mb 63f 63f
1:18 7 9 mph 1007.4mb 63f 63f
1:12 6 8 mph 1007.3mb 63f 63f
1:06 5 9 mph 1007.3mb 62f 63f
1:00 6 9 mph 1007.3mb 63f 63f
12:54 7 9 mph 1007.3mb 63f 63f
12:48 7 9 mph 1007.3mb 62f 63f
12:42 7 8 mph 1007.3mb 63f 63f
12:36 6 8 mph 1007.3mb 63f 63f
12:30 7 9 mph 1007.3mb 63f 63f
12:24 7 11 mph 1007.3mb 64f 63f
12:18 7 11 mph - - -
12:12 6 8 mph 1007.5mb 64f 63f
12:06 6 9 mph 1007.5mb 64f 63f
12:00 6 10 mph 1007.6mb 64f 63f
jeu. 04/27 11:54 7 8 mph 1007.7mb 64f 63f
11:48 5 7 mph - - -
11:42 5 8 mph 1007.7mb 64f 63f
11:36 5 7 mph 1007.7mb 64f 63f
11:30 6 7 mph 1007.6mb 64f 63f
11:24 5 7 mph 1007.6mb 65f 63f
11:18 5 7 mph - - -
11:12 5 8 mph 1007.7mb 64f 63f
11:06 5 7 mph 1007.7mb 64f 64f
11:00 5 6 mph 1007.7mb 65f 64f
10:54 3 7 mph 1007.7mb 65f 64f
10:48 6 8 mph 1007.8mb 65f 64f
10:42 6 8 mph 1007.9mb 64f 64f
10:36 2 3 mph 1007.9mb 64f 64f
10:30 2 3 mph 1007.9mb 64f 64f
10:24 2 3 mph 1007.9mb 64f 64f
10:18 2 3 mph 1008mb 64f 64f
10:12 3 5 mph 1007.9mb 64f 64f
10:06 3 5 mph 1008mb 64f 64f
10:00 2
mph
1008.1mb 64f 64f
9:54 1 2 mph 1008mb 64f 64f
9:48  -  2 mph 1008mb 64f 64f
9:42 2 5 mph 1008.1mb 64f 64f
9:36 3 6 mph 1008mb 64f 64f
9:30 5 8 mph 1007.9mb 63f 64f
9:24 6 8 mph 1007.8mb 63f 64f
9:18 7 9 mph 1007.8mb 63f 64f
9:12 7 8 mph 1007.9mb 63f 64f
9:06 7 8 mph 1008mb 62f 64f
9:00 7 9 mph 1007.9mb 62f 64f
8:54 8 9 mph 1007.8mb 61f 64f
8:48 9 10 mph - - -
8:42 9
mph
1007.8mb 61f 64f
8:36 8 9 mph 1007.8mb 61f 64f
8:30 8 9 mph 1007.8mb 61f 64f
8:24 7 8 mph 1007.6mb 60f 64f
8:18 7 9 mph 1007.6mb 60f 64f
8:12 9 10 mph 1007.4mb 61f 64f
8:06 9 11 mph 1007.3mb 61f 64f
8:00 10 11 mph 1007.3mb 60f 64f
7:54 10
mph
1007.2mb 60f 64f
7:48 8 9 mph 1007.2mb 59f 64f
7:42 6 7 mph 1007.1mb 58f 65f
7:36 6 7 mph 1007.1mb 58f 65f
7:30 6 7 mph 1007.1mb 59f 65f
7:24 6 7 mph 1007mb 62f 64f
7:18 3 5 mph - - -
7:12 3 5 mph 1007.3mb 63f 65f
7:06 1 2 mph 1007.3mb 63f 65f
7:00 1 3 mph 1007.3mb 63f 65f
6:54 2
mph
1007.4mb 63f 65f
6:48 2
mph
1007.3mb - -
6:42 2
mph
1007.4mb 62f 65f
6:36 2
mph
1007.5mb 62f 65f
6:30 1 2 mph 1007.7mb 63f 66f
6:24 1
mph
1007.8mb 64f 68f
6:18 1 2 mph - - -
6:12 1 2 mph 1007.9mb 65f 67f
6:06 1 2 mph 1007.8mb 65f 67f
6:00 2
mph
- 65f 67f
5:54 1 2 mph - 65f 67f
5:48 1 3 mph 1007.7mb 65f 67f
5:42  -  2 mph 1007.7mb 64f 66f
5:36 2 3 mph 1007.8mb 64f 66f
5:30 1 2 mph 1007.8mb 64f 66f
5:24 2
mph
1007.8mb 64f 65f
5:18 2 3 mph - - -
5:12 3 6 mph 1007.8mb 65f 65f
5:06 5 7 mph 1007.9mb 65f 65f
5:00 5 6 mph 1007.8mb 65f 65f
4:48 6 7 mph - - -
4:42 6 7 mph 1007.9mb 65f 66f
4:36 5 7 mph 1008mb 65f 66f
4:30 6 7 mph 1008mb 65f 66f
4:24 5 7 mph 1007.9mb 65f 66f
4:18 6 7 mph - - -
4:12 6 8 mph 1007.8mb 65f 65f
4:06 6 8 mph 1007.8mb 65f 65f
4:00 7 8 mph 1007.8mb 65f 65f
3:54 7 8 mph 1007.9mb 65f 64f
3:48 8 9 mph 1008mb - -
3:42 8 9 mph 1008mb 65f 65f
3:36 7 9 mph 1008.1mb 65f 65f
3:30 6 8 mph 1008.1mb 65f 65f
3:24 7 8 mph 1008.1mb 64f 65f
3:18 7 9 mph 1008.1mb 64f 65f
3:12 6 8 mph 1008.2mb 65f 66f
3:06 7 8 mph 1008.3mb 65f 66f
3:00 7 9 mph 1008.4mb 64f 66f
2:54 7 8 mph 1008.4mb 64f 67f
2:48 7 9 mph - - -
2:42 7 9 mph 1008.4mb 64f 66f
2:36 7 10 mph 1008.5mb 64f 66f
2:30 8 10 mph 1008.6mb 64f 66f
2:24 8 11 mph 1008.6mb 64f 66f
2:18 10 11 mph 1008.6mb 64f 66f
2:12 9 11 mph 1008.6mb 64f 66f
2:06 10 13 mph 1008.7mb 64f 66f
2:00 10 13 mph 1008.6mb 64f 66f
1:54 9 13 mph 1008.6mb 64f 66f
1:48 10 13 mph 1008.5mb 64f 66f
1:42 10 14 mph 1008.6mb 64f 66f
1:36 11 14 mph 1008.7mb 64f 65f
1:30 10 14 mph 1008.7mb 64f 66f
1:24 13 14 mph 1008.7mb 64f 66f
1:18 11 16 mph 1008.7mb 64f 66f
1:12 13 15 mph 1008.8mb 64f 66f
1:06 11 14 mph 1008.9mb 64f 66f
1:00 11 14 mph 1008.8mb 64f 66f
12:54 11 14 mph 1008.9mb 64f 66f
12:48 8 13 mph 1008.8mb 64f 66f
12:42 11 14 mph 1008.9mb 64f 66f
12:36 9 13 mph 1009mb 64f 66f
12:30 10 11 mph 1009mb 64f 66f
12:24 10 13 mph 1009.1mb 64f 66f
12:18 11 13 mph 1009.2mb 64f 66f
12:12 11 14 mph 1009.2mb 64f 66f
12:06 11 14 mph 1009.3mb 63f 66f
12:00 10 11 mph 1009.3mb 63f 66f
11:54 7 10 mph 1009.5mb 64f 66f
11:48 2 5 mph 1009.6mb 63f 66f
11:42 5 6 mph 1009.6mb 63f 66f
11:36 3 5 mph 1009.6mb 63f 66f
11:30  -  2 mph 1009.7mb 63f 66f
11:24 1 3 mph 1009.7mb 63f 65f
11:18 3 5 mph 1009.7mb 63f 65f
11:12 5
mph
1009.7mb 63f 65f
11:06 3 5 mph 1010mb 63f 65f
11:00 5 6 mph 1010mb 62f 65f
10:54 5 6 mph 1009.9mb 62f 65f
10:48 5 6 mph 1009.8mb 62f 65f
10:42 5 7 mph 1009.8mb 62f 65f
10:36 6 7 mph 1009.8mb 62f 65f
10:30 3 5 mph 1009.8mb 62f 65f
10:24 2 3 mph 1009.8mb 62f 65f
10:18 2
mph
1009.8mb 62f 65f
10:12 2 3 mph 1010mb 63f 65f
10:06 2 3 mph 1009.9mb 62f 65f
10:00 2 3 mph 1009.9mb 62f 64f
9:42 5
mph
1009.8mb 62f 64f
9:36 5
mph
1009.8mb 62f 64f
9:30  -  1 mph 1009.7mb 62f 65f
9:24  -  2 mph 1009.8mb 62f 64f
9:18 2
mph
1009.8mb 62f 64f
9:12 1 2 mph 1009.8mb 62f 64f
9:06 3 6 mph 1009.8mb 61f 64f
9:00 2 3 mph 1009.8mb 61f 64f
8:54  -  2 mph 1009.6mb 60f 64f
8:48 2
mph
- - -
8:42 1 2 mph 1009.6mb 60f 64f
8:36 1 2 mph 1009.7mb 61f 64f
8:30 2 3 mph 1009.5mb 61f 64f
8:24 2 3 mph 1009.6mb 61f 64f
8:18 3
mph
1009.8mb 61f 64f
8:12 2 5 mph 1009.7mb 61f 64f
8:06 3 6 mph 1009.6mb 61f 64f
8:00 2 6 mph 1009.7mb 61f 64f
7:54 3 5 mph 1009.5mb 62f 64f
7:48 3 6 mph - - -
7:42 6 7 mph 1009.4mb 62f 64f
7:36 6 8 mph 1009.4mb 62f 64f
7:30 6 8 mph 1009.3mb 62f 64f
7:24 5 7 mph 1009.3mb 62f 64f
7:18 3 6 mph 1009.2mb 62f 64f
7:12 5 6 mph 1009.3mb 62f 64f
7:06 5 6 mph 1009.3mb 62f 64f
7:00 5 6 mph 1009.3mb 62f 64f
6:54 5 6 mph 1009.3mb 62f 64f
6:48 3 6 mph - - -
6:42 3 5 mph 1009.1mb 62f 64f
6:36 5
mph
1009.1mb 63f 64f
6:30 2 5 mph 1009mb 63f 64f
6:24 3 5 mph 1009mb 63f 64f
6:18 3 7 mph 1008.9mb 62f 64f
6:12 3 5 mph 1008.8mb 62f 64f
6:06 5 6 mph 1008.7mb 62f 64f
6:00 3 5 mph 1008.5mb 62f 64f
5:54 5 6 mph 1008.6mb 63f 64f
5:48 6 7 mph - - -
5:42 6
mph
1008.6mb 63f 64f
5:36 5 6 mph 1008.6mb 63f 64f
5:30 5 6 mph 1008.5mb 63f 64f
5:24 5 6 mph 1008.4mb 63f 64f
5:18 5 6 mph 1008.6mb 63f 64f
5:12 6 7 mph 1008.7mb 63f 64f
5:06 3 8 mph 1008.9mb 63f 64f
5:00 6 8 mph 1008.9mb 63f 64f
4:48 7 9 mph 1008.8mb 63f 64f
4:42 7 9 mph 1009mb 63f 64f
4:36 7 9 mph 1009.1mb 62f 64f
4:30 8 9 mph 1009.2mb 63f 64f
4:24 8
mph
1009.5mb 63f 64f
4:18 6 7 mph 1009.7mb 63f 64f
4:12 7 9 mph 1009.5mb 63f 64f
4:06 7 9 mph 1009.7mb 63f 64f
4:00 8 9 mph 1009.7mb 63f 64f
3:54 8 10 mph 1009.6mb 62f 64f
3:48 10 11 mph 1009.3mb 63f 64f
3:42 7 10 mph 1009.4mb 63f 64f
3:36 8 9 mph 1009.4mb 64f 64f
3:30 8 9 mph 1009.4mb 64f 64f
3:24 7 9 mph 1009.4mb 64f 64f
3:18 8 10 mph 1009.3mb 64f 64f
3:12 7 10 mph 1009.3mb 64f 64f
3:06 7 10 mph 1009.3mb 64f 64f
3:00 7 9 mph 1009.2mb 64f 64f
2:54 7 9 mph 1009.1mb 64f 64f
2:48 7 9 mph 1009.3mb 64f 64f
2:42 5 7 mph 1009.2mb 64f 64f
2:36 3 6 mph 1009.3mb 64f 64f
2:30 5 6 mph 1009mb 64f 64f
2:24 3 6 mph 1009.1mb 64f 64f
2:18 3 5 mph 1009.3mb 64f 64f
2:12 5 7 mph 1009.4mb 64f 64f
2:06 5 6 mph 1009.4mb 64f 64f
2:00 6
mph
1009.5mb 64f 64f
1:54 5 6 mph 1009.9mb 64f 64f
1:48 5 6 mph 1010mb 64f 64f
1:42 3 5 mph 1010.2mb 64f 64f
1:36 2 3 mph 1010.3mb 64f 64f
1:30 2 5 mph 1010.2mb 64f 64f
1:24 3 5 mph 1010.3mb 64f 63f
1:18 3 5 mph 1010.2mb 64f 63f
1:12 2 3 mph 1010.2mb 64f 64f
1:06 3 5 mph 1010.3mb 64f 64f
1:00 3 5 mph 1010.3mb 64f 64f
12:54 5 6 mph 1010.3mb 64f 64f
12:48 3 5 mph 1010.5mb 64f 64f
12:42 3 6 mph 1010.5mb 64f 64f
12:36 3 6 mph 1010.5mb 64f 64f
12:30 5
mph
1010.5mb 64f 64f
12:24 3 6 mph 1010.6mb 64f 64f
12:18 3 6 mph 1010.7mb 65f 64f
12:12 3 7 mph 1010.5mb 65f 64f
12:06 6 7 mph 1010.6mb 65f 64f
12:00 5 6 mph 1010.6mb 65f 64f
mer. 04/26 11:54 6 7 mph 1010.6mb 65f 64f
11:48 6
mph
- - -
11:42 2 3 mph 1010.9mb 64f 64f
11:36 2 5 mph 1010.9mb 64f 64f
11:30 3
mph
1010.6mb 64f 64f
11:24 3 5 mph 1010.7mb 64f 64f
11:18 2 3 mph - - -
11:12 3 5 mph 1010.6mb 64f 64f
11:06 3 5 mph 1010.5mb 64f 64f
11:00 3 5 mph 1010.8mb 64f 64f
10:54 5 6 mph 1010.8mb 64f 64f
10:48 3 6 mph 1010.9mb 64f 64f
10:42 5 7 mph 1010.7mb 64f 64f
10:36 7 8 mph 1010.8mb 64f 64f
10:30 7 11 mph 1010.9mb 64f 64f
10:24 10 13 mph 1010.7mb 64f 64f
10:18 7 9 mph 1010.9mb 64f 64f
10:12 7 8 mph 1011.1mb 64f 64f
10:06 7 9 mph 1011.1mb 64f 65f
10:00 8 9 mph 1011.2mb 64f 65f
9:54 7 8 mph 1011.2mb 64f 65f
9:48 8 10 mph 1011.2mb 64f 65f
9:42 8 11 mph 1011.2mb 64f 65f
9:36 9 13 mph 1011.1mb 64f 65f
9:30 10 13 mph 1011mb 64f 65f
9:24 9 10 mph 1010.9mb 64f 65f
9:18 9 11 mph 1010.9mb 64f 65f
9:12 8 10 mph 1010.9mb 64f 65f
9:06 9 10 mph 1010.8mb 65f 65f
9:00 7 8 mph 1010.7mb 64f 65f
8:54 6 7 mph 1010.7mb 64f 65f
8:48 5 6 mph - - -
8:42 5
mph
1010.8mb 65f 66f
8:36 5 6 mph 1010.8mb 65f 66f
8:30 3 5 mph 1010.8mb 65f 66f
8:24 2 6 mph 1010.8mb 65f 66f
8:18 6 7 mph 1010.7mb 65f 66f
8:12 6
mph
1010.7mb 65f 66f
8:06 7 8 mph 1010.7mb 65f 66f
8:00 6 7 mph 1010.6mb 65f 65f
7:54 6 7 mph 1010.7mb 65f 66f
7:48 7 8 mph 1010.7mb 65f 65f
7:42 7
mph
1010.6mb 65f 65f
7:36 6 7 mph 1010.6mb 65f 65f
7:30 6
mph
1010.5mb 65f 65f
7:24 5
mph
1010.5mb 65f 65f
7:18 6
mph
1010.5mb 65f 65f
7:12 6 7 mph 1010.6mb 65f 65f
7:06 6 7 mph 1010.4mb 65f 65f
7:00 7
mph
1010.5mb 65f 65f
6:54 5 6 mph 1010.5mb 65f 65f
6:48 6 7 mph - - -
6:42 6
mph
1010.5mb 65f 65f
6:36 6 7 mph 1010.7mb 65f 66f
6:30 6
mph
1010.8mb 65f 66f
6:24 5 6 mph 1011mb 64f 66f
6:18 6
mph
- - -
6:12 6 7 mph 1011.1mb 64f 66f
6:06 5 6 mph 1011.1mb 64f 66f
6:00 5 6 mph 1011.1mb 64f 67f
5:48 2 6 mph - - -
5:42 5 6 mph 1011.2mb 64f 67f
5:36 5 6 mph 1011.2mb 64f 67f
5:30 5 6 mph 1011.2mb 64f 66f
5:24 6 7 mph 1011.1mb 64f 66f
5:18 6 7 mph - - -
5:12 6 8 mph 1011mb 64f 66f
5:06 6 8 mph 1011mb 64f 66f
5:00 8 9 mph 1011.1mb 64f 65f
4:48 7 8 mph 1011.1mb 64f 66f
4:42 7
mph
1011.1mb 65f 66f
4:36 7 8 mph 1011.2mb 64f 66f
4:30 8 9 mph 1011.2mb 64f 65f
4:24 8 9 mph 1011.3mb 65f 65f
4:18 9 11 mph - - -
4:12 10 11 mph 1011.3mb 65f 65f
4:06 9 10 mph 1011.3mb 65f 65f
4:00 8 9 mph 1011.4mb 64f 65f
3:54 9 10 mph 1011.4mb 65f 65f
3:48 9 10 mph 1011.5mb 65f 65f
3:36 10 13 mph 1011.6mb 65f 65f
3:30 10 13 mph 1011.6mb 64f 65f
3:24 10 11 mph 1011.6mb 64f 65f
3:18 10 14 mph - - -
3:12 13 14 mph 1011.9mb 65f 65f
3:06 11 13 mph 1011.7mb 65f 65f
3:00 9
mph
1011.7mb 65f 66f
2:54 9 11 mph 1011.8mb 64f 66f
2:48 10 11 mph - - -
2:42 11
mph
1011.9mb 64f 66f
2:36 10 13 mph 1011.9mb 65f 65f
2:30 11 13 mph 1012mb 65f 65f
2:24 9 10 mph 1012.1mb 65f 66f
2:18 8 10 mph - - -
2:12 9 10 mph 1012.2mb 64f 65f
2:06 8 11 mph 1012.2mb 64f 65f
2:00 9 10 mph 1012.3mb 64f 65f
1:54 9 11 mph 1012.3mb 65f 65f
1:48 9 11 mph 1012.3mb 64f 65f
1:42 10 11 mph 1012.4mb 64f 65f
1:36 9 11 mph 1012.5mb 64f 65f
1:30 10 13 mph 1012.6mb 64f 65f
1:24 10 11 mph 1012.6mb 64f 65f
1:18 10 11 mph - - -
1:12 11 14 mph 1012.7mb 64f 64f
1:06 13 15 mph 1012.8mb 64f 64f
1:00 11 14 mph 1012.7mb 64f 64f
12:54 10 13 mph 1012.7mb 64f 64f
12:48 10 11 mph 1012.7mb 64f 64f
12:42 9 10 mph 1012.8mb 64f 64f
12:36 9 10 mph 1012.7mb 64f 64f
12:30 9 10 mph 1012.9mb 64f 64f
12:24 9
mph
1012.9mb 64f 64f
12:18 9 10 mph - - -
12:12 9 10 mph 1012.8mb 64f 64f
12:06 10
mph
1012.8mb 64f 64f
12:00 9
mph
1012.9mb 64f 65f
11:54 8 9 mph 1013mb 64f 64f
11:48 9 10 mph 1013mb 64f 64f
11:42 9 10 mph 1013mb 64f 65f
11:36 9 10 mph 1012.6mb 64f 64f
11:30 6 7 mph 1012.7mb 64f 65f
11:24 5 6 mph 1013mb 64f 65f
11:18 3 5 mph 1013.2mb 63f 65f
11:12 3 6 mph 1013.4mb 63f 65f
11:06 5 6 mph 1013.4mb 63f 65f
11:00 6 7 mph 1013.5mb 63f 64f
10:54 6 7 mph 1013.4mb 63f 64f
10:48 6 8 mph 1013.2mb 63f 64f
10:42 7 8 mph 1013.2mb 63f 64f
10:36 7 8 mph 1013.1mb 63f 64f
10:30 5 7 mph 1013.1mb 63f 64f
10:24 6 7 mph 1013.1mb 63f 65f
10:18 5 6 mph 1013.1mb 63f 65f
10:12 3 5 mph 1013mb 63f 65f
10:06 3 5 mph 1012.9mb 63f 66f
10:00 3 5 mph 1012.8mb 63f 66f
9:54 3
mph
1012.9mb 63f 66f
9:48 2 3 mph 1012.8mb 63f 67f
9:42 2
mph
1012.8mb 63f 67f
9:36 2 3 mph 1012.9mb 63f 68f
9:30 1 2 mph 1012.8mb 63f 68f
9:24 1 2 mph 1012.7mb 63f 67f
9:18  -  1 mph 1012.5mb 63f 68f
9:12 1 2 mph 1012.5mb 63f 67f
9:06 2 3 mph 1012.4mb 63f 67f
9:00 2 3 mph 1012.5mb 63f 67f
8:54 2 3 mph 1012.4mb 63f 67f
8:48 2 3 mph 1012.2mb 62f 67f
8:42 2
mph
1012.3mb 62f 66f
8:36 1 2 mph 1012.2mb 62f 66f
8:30 1 2 mph 1012.2mb 62f 67f
8:24  -  2 mph 1012mb 62f 68f
8:18 1 2 mph 1012mb 62f 67f
8:12 2 3 mph 1012mb 62f 66f
8:06 2 3 mph 1012mb 62f 66f
8:00 1
mph
1011.9mb 62f 66f
7:54 1 2 mph 1011.8mb 62f 66f
7:48 1 2 mph 1011.8mb 63f 66f
7:42  -  2 mph 1011.8mb 62f 67f
7:36 2
mph
1011.9mb 62f 66f
7:30  -  1 mph 1011.9mb 62f 67f
7:24  -  1 mph 1011.9mb 62f 65f
7:18 1 3 mph 1011.7mb 62f 65f
7:12  -  1 mph 1011.7mb 62f 64f
7:06  -  3 mph 1011.7mb 62f 63f
7:00  -  2 mph 1011.5mb 61f 62f
6:54 1 3 mph 1011.5mb 60f 61f
6:48 3 6 mph 1011.3mb 60f 60f
6:42 2 6 mph 1011.4mb 60f 60f
6:36 5 8 mph 1011.3mb 60f 60f
6:30 7 11 mph 1011.3mb 61f 60f
6:24 8 10 mph 1011.3mb 62f 60f
6:18 8 10 mph 1011.3mb 62f 60f
6:12 9 10 mph 1011.2mb 62f 60f
6:06 9 10 mph 1011.2mb 61f 60f
6:00 9
mph
1011.3mb 60f 61f
5:48 3 7 mph 1011.2mb 61f 60f
5:42 6
mph
1011.2mb 61f 60f
5:36 2 6 mph 1011.3mb 60f 60f
5:30 6 7 mph 1011.2mb 60f 60f
5:24  -  5 mph 1011.3mb 60f 60f
5:18 3 5 mph 1011.3mb 61f 61f
5:12 2 3 mph 1011.4mb 61f 61f
5:06 3 5 mph 1011.3mb 61f 61f
5:00 3 6 mph 1011.2mb 61f 61f
4:54 3
mph
1011.2mb 61f 61f
4:48 3
mph
1011.3mb 62f 61f
4:42 2 5 mph 1011.5mb 62f 62f
4:36 5 6 mph 1011.6mb 61f 62f
4:30 6
mph
1011.6mb 61f 62f
4:24 3
mph
1011.7mb 61f 62f
4:18 2 3 mph 1011.7mb 61f 61f
4:12 2
mph
1011.6mb 61f 61f
4:06 1 3 mph 1011.7mb 62f 61f
4:00  -  1 mph 1011.7mb 62f 61f
3:54  -  1 mph 1011.6mb 62f 61f
3:48  -  mph 1011.7mb 62f 61f
3:42  -  1 mph 1011.7mb 62f 61f
3:36  -  2 mph 1011.6mb 62f 61f
3:30 2
mph
1011.4mb 62f 61f
3:24 1 2 mph 1011.4mb 62f 61f
3:18 2 3 mph 1011.4mb 62f 61f
3:12 1 5 mph 1011.4mb 62f 61f
3:06 3 5 mph 1011.3mb 63f 61f
3:00 3
mph
1011.3mb 63f 61f
2:54 2 3 mph 1011.3mb 63f 61f
2:48 3
mph
1011.4mb 63f 61f
2:42 3
mph
1011.4mb 63f 62f
2:36 2 3 mph 1011.5mb 63f 62f
2:30  -  1 mph 1011.6mb 63f 62f
2:24  -  2 mph 1011.6mb 63f 62f
2:18 1 2 mph 1011.6mb 63f 62f
2:12 2 3 mph 1011.7mb 63f 62f
2:06 2 3 mph 1011.6mb 63f 61f
2:00 1 2 mph 1011.6mb 63f 61f
1:54 1 2 mph 1011.7mb 63f 62f
1:48  -  3 mph 1011.7mb 63f 62f
1:42 2 3 mph 1011.9mb 63f 62f
1:36 2 3 mph 1012mb 63f 62f
1:30 2
mph
1012mb 63f 62f
1:24 2
mph
1012mb 63f 62f
1:18 2
mph
1012mb 63f 62f
1:12 2 3 mph 1012mb 63f 62f
1:06 3 5 mph 1012.1mb 63f 62f
1:00 3 5 mph 1012.2mb 63f 62f
12:54 3
mph
1012.2mb 63f 62f
12:48 1 5 mph 1012.3mb 63f 62f
12:42 2 3 mph 1012.4mb 63f 62f
12:36 2 3 mph 1012.4mb 63f 62f
12:30 1 2 mph 1012.5mb 63f 62f
12:24 1 2 mph 1012.6mb 63f 63f
12:18  -  1 mph 1012.7mb 63f 63f
12:12 1
mph
1012.8mb 63f 63f
12:06  -  2 mph 1012.8mb 63f 63f
12:00 2
mph
1012.7mb 63f 63f
mar. 04/25 11:54 2 3 mph 1012.6mb 63f 63f
11:48 3
mph
1012.4mb 63f 62f
11:42 2 3 mph 1012.5mb 63f 63f
11:36 2
mph
1012.5mb 63f 62f
11:30 2
mph
1012.5mb 63f 63f
11:24  -  1 mph 1012.6mb 63f 63f
11:18  -  1 mph 1012.7mb 63f 62f
11:12 1 2 mph 1012.8mb 63f 63f
11:06 2
mph
1012.8mb 63f 63f
11:00 2
mph
1012.8mb 63f 63f
10:54  -  2 mph 1012.9mb 63f 63f
10:48 1 2 mph 1012.8mb 63f 63f
10:42  -  2 mph 1012.7mb 63f -
10:36 1 2 mph 1012.9mb 63f -
10:30 2
mph
1012.8mb 63f 63f
10:24 1 2 mph 1012.9mb 63f 63f
10:18 1 2 mph 1012.9mb 63f 63f
10:12 2
mph
1013mb 63f 63f
10:06 3 6 mph 1012.9mb 63f 63f
10:00 3 5 mph 1012.9mb 63f 63f
9:54 2 3 mph 1012.9mb 64f 63f
9:48 1 2 mph 1012.9mb 63f 63f
9:42 1 2 mph 1013mb 63f 63f
9:36 2 3 mph 1012.8mb 63f 63f
9:30 3
mph
1012.8mb 63f 64f
9:24 2 3 mph 1012.8mb 63f 64f
9:18 2
mph
1012.9mb 63f 64f
9:12 2
mph
1012.9mb 63f 64f
9:06 2
mph
1012.9mb 63f 64f
9:00  -  1 mph 1012.9mb 63f 64f
8:54 1 2 mph 1012.8mb 63f 64f
8:48 3
mph
1012.8mb 63f 64f
8:42 3 5 mph 1012.7mb 63f 64f
8:36 5 6 mph 1012.7mb 63f 64f
8:30 3 5 mph 1012.5mb 63f 64f
8:24 5 6 mph 1012.5mb 63f 64f
8:18 5 6 mph 1012.5mb 63f 64f
8:12 3 5 mph 1012.2mb 63f 64f
8:06 5
mph
1012.1mb 63f 64f
8:00 5 6 mph 1012mb 63f 64f
7:54 6 7 mph 1012mb 63f 64f
7:48 6 7 mph 1011.8mb 63f 64f
7:42 7
mph
1011.7mb 63f 64f
7:36 6 7 mph 1011.7mb 63f 65f
7:30 2
mph
1011.7mb 63f 65f
7:24 1 2 mph 1011.7mb 64f 65f
7:18 1 2 mph - - -
7:12 1 2 mph 1011.7mb 63f 65f
7:06  -  1 mph 1011.7mb 63f 65f
7:00 1 2 mph 1011.5mb 64f 65f
6:54  -  1 mph 1011.5mb 64f 65f
6:48  -  1 mph - - -
6:42  -  1 mph 1011.6mb 64f 66f
6:36  -  2 mph 1011.6mb 64f 65f
6:30 1 2 mph 1011.7mb 64f 65f
6:24 1 3 mph 1011.7mb 64f 65f
6:18 2 3 mph - - -
6:12 1 2 mph 1011.7mb 64f 66f
6:06 1 5 mph 1011.6mb 64f 65f
6:00 3 6 mph 1011.6mb 64f 65f
5:54 6
mph
1011.6mb 64f 65f
5:48 5 7 mph - - -
5:42 7
mph
1011.6mb 64f 65f
5:36 6 8 mph 1011.6mb 64f 65f
5:30 7 8 mph 1011.9mb 64f 65f
5:24 6 7 mph 1012mb 64f 66f
5:18 6 7 mph 1012mb 64f 66f
5:12 7
mph
1011.8mb 64f 65f
5:06 6 7 mph 1011.9mb 64f 66f
5:00 6 8 mph 1011.8mb 64f 65f
4:48 8
mph
1011.8mb - -
4:42 7 9 mph 1011.8mb 64f 65f
4:36 9 10 mph 1011.7mb 64f 65f
4:30 9 11 mph 1011.8mb 64f 65f
4:24 9 11 mph 1011.8mb 64f 65f
4:18 9 11 mph 1011.8mb 64f 65f
4:06 10 11 mph 1011.9mb 64f 65f
4:00 10 11 mph 1011.9mb 64f 65f
3:54 10 11 mph 1012mb 64f 65f
3:48 11 13 mph 1012.2mb - -
3:42 11 14 mph 1012.1mb 64f 65f
3:36 10 11 mph 1012.2mb 64f 65f
3:30 10 11 mph 1012.3mb 64f 65f
3:24 9 11 mph 1012.2mb 64f 66f
3:18 9 11 mph 1012.2mb 64f 66f
3:12 8 10 mph 1012.2mb 64f 66f
3:06 8 9 mph 1012mb 64f 66f
3:00 7 9 mph 1012mb 64f 66f
2:48 7 9 mph - - -
2:42 8 10 mph 1012.3mb 64f 65f
2:36 8 9 mph 1012.2mb 64f 65f
2:30 8 10 mph 1012.3mb 64f 66f
2:24 8 10 mph 1012.5mb 64f 66f
2:18 9 10 mph 1012.6mb 64f 66f
2:12 8 10 mph 1012.8mb 64f 66f
2:06 8 9 mph 1012.8mb 64f 65f
2:00 8 9 mph 1012.9mb 64f 66f
1:54 7 9 mph 1012.8mb 63f 66f
1:48 7 10 mph 1013mb 63f 66f
1:42 8 10 mph 1013mb 63f 65f
1:36 8 11 mph 1013.1mb 64f 65f
1:30 9 11 mph 1013.1mb 63f 66f
1:24 8 10 mph 1013.1mb 63f 66f
1:18 8 11 mph 1013.2mb 63f 66f
1:12 7 10 mph 1013.2mb 63f 66f
1:06 7 10 mph 1013.1mb 63f 65f
1:00 8 9 mph 1013.1mb 63f 65f
12:54 8 9 mph 1013.1mb 63f 65f
12:48 8 9 mph 1013.1mb 63f 65f
12:42 8 9 mph 1013.1mb 63f 65f
12:36 8 9 mph 1013.2mb 63f 65f
12:30 7 8 mph 1013.3mb 63f 65f
12:24 6 8 mph 1013.1mb 63f 65f
12:18 6 8 mph 1013.3mb 63f 65f
12:12 8 9 mph 1013.2mb 63f 65f
12:06 9 10 mph 1013.2mb 63f 65f
12:00 9 10 mph 1013.2mb 63f 65f
11:54 10 11 mph 1013.2mb 63f 64f
11:48 8 11 mph 1013.3mb 63f 64f
11:42 9 13 mph 1013.3mb 63f 64f
11:36 11 13 mph 1013.4mb 63f 64f
11:30 9 13 mph 1013.4mb 63f 64f
11:24 11 13 mph 1013.4mb 63f 64f
11:18 11 13 mph 1013.4mb 62f 64f
11:12 10 11 mph 1013.2mb 62f 64f
11:06 11 13 mph 1013.1mb 63f 64f
11:00 11 13 mph 1013.2mb 62f 64f
10:54 13 14 mph 1013.1mb 62f 64f
10:48 11 14 mph 1013mb 62f 64f
10:42 13 14 mph 1013.2mb 62f 64f
10:36 11 14 mph 1013mb 62f 64f
10:30 11 14 mph 1013.1mb 62f 64f
10:24 13 15 mph 1013.2mb 62f 64f
10:18 13 14 mph 1013.1mb 62f 64f
10:12 10 11 mph 1013.1mb 62f 65f
10:06 10 13 mph 1013mb 62f 65f
10:00 11 14 mph 1012.9mb 62f 65f
9:54 11 14 mph 1012.9mb 62f 64f
9:48 10 13 mph 1012.8mb 62f 64f
9:42 11 13 mph 1012.8mb 62f 64f
9:36 11 13 mph 1012.8mb 62f 64f
9:30 8 11 mph 1012.8mb 62f 64f
9:24 7 9 mph 1012.8mb 62f 64f
9:18 8 10 mph 1012.7mb 62f 64f
9:12 8 9 mph 1012.7mb 61f 64f
9:06 7 8 mph 1012.7mb 62f 64f
9:00 7 8 mph 1012.7mb 62f 64f
8:54 7 9 mph 1012.7mb 62f 64f
8:48 6 8 mph 1012.7mb 62f 64f
8:42 5 7 mph 1012.6mb 62f 64f
8:36 7 8 mph 1012.6mb 62f 64f
8:30 6 10 mph 1012.5mb 62f 64f
8:24 7 9 mph 1012.5mb 62f 64f
8:18 7 9 mph 1012.5mb 62f 63f
8:12 9 13 mph 1012.5mb 62f 63f
8:06 8 11 mph 1012.4mb 62f 63f
8:00 5 10 mph 1012.4mb 62f 63f
7:54 10 15 mph 1012.4mb 62f 63f
7:48 10 15 mph 1012.2mb 62f 64f
7:42 10 13 mph 1012.1mb 62f 64f
7:36 11 14 mph 1011.9mb 62f 64f